sensor_id;sensor_type;location;lat;lon;timestamp;P1;durP1;ratioP1;P2;durP2;ratioP2
17141;SDS011;32805;53.556;9.944;2023-10-09T00:01:43;3.47;;;2.60;;
17141;SDS011;32805;53.556;9.944;2023-10-09T00:04:12;4.78;;;2.50;;
17141;SDS011;32805;53.556;9.944;2023-10-09T00:06:42;4.50;;;2.50;;
17141;SDS011;32805;53.556;9.944;2023-10-09T00:09:10;4.05;;;2.40;;
17141;SDS011;32805;53.556;9.944;2023-10-09T00:11:59;5.38;;;2.45;;
17141;SDS011;32805;53.556;9.944;2023-10-09T00:14:29;3.63;;;1.83;;
17141;SDS011;32805;53.556;9.944;2023-10-09T00:16:56;3.90;;;2.28;;
17141;SDS011;32805;53.556;9.944;2023-10-09T00:19:35;2.72;;;2.15;;
17141;SDS011;32805;53.556;9.944;2023-10-09T00:22:03;3.47;;;2.22;;
17141;SDS011;32805;53.556;9.944;2023-10-09T00:24:36;4.35;;;2.10;;
17141;SDS011;32805;53.556;9.944;2023-10-09T00:27:11;3.35;;;2.60;;
17141;SDS011;32805;53.556;9.944;2023-10-09T00:29:40;6.55;;;2.35;;
17141;SDS011;32805;53.556;9.944;2023-10-09T00:32:14;4.03;;;1.83;;
17141;SDS011;32805;53.556;9.944;2023-10-09T00:34:49;5.28;;;2.13;;
17141;SDS011;32805;53.556;9.944;2023-10-09T00:37:17;5.05;;;2.53;;
17141;SDS011;32805;53.556;9.944;2023-10-09T00:39:49;3.17;;;2.17;;
17141;SDS011;32805;53.556;9.944;2023-10-09T00:42:22;4.88;;;2.35;;
17141;SDS011;32805;53.556;9.944;2023-10-09T00:44:57;3.40;;;1.88;;
17141;SDS011;32805;53.556;9.944;2023-10-09T00:47:29;3.08;;;1.70;;
17141;SDS011;32805;53.556;9.944;2023-10-09T00:50:02;3.67;;;2.13;;
17141;SDS011;32805;53.556;9.944;2023-10-09T00:52:37;3.72;;;2.10;;
17141;SDS011;32805;53.556;9.944;2023-10-09T00:55:10;3.90;;;2.33;;
17141;SDS011;32805;53.556;9.944;2023-10-09T00:57:41;3.72;;;1.80;;
17141;SDS011;32805;53.556;9.944;2023-10-09T01:00:15;4.57;;;2.72;;
17141;SDS011;32805;53.556;9.944;2023-10-09T01:02:59;3.92;;;2.05;;
17141;SDS011;32805;53.556;9.944;2023-10-09T01:05:47;2.85;;;2.03;;
17141;SDS011;32805;53.556;9.944;2023-10-09T01:08:23;2.80;;;2.00;;
17141;SDS011;32805;53.556;9.944;2023-10-09T01:10:57;5.22;;;1.88;;
17141;SDS011;32805;53.556;9.944;2023-10-09T01:13:35;2.67;;;1.80;;
17141;SDS011;32805;53.556;9.944;2023-10-09T01:16:20;4.50;;;2.30;;
17141;SDS011;32805;53.556;9.944;2023-10-09T01:18:50;3.92;;;2.20;;
17141;SDS011;32805;53.556;9.944;2023-10-09T01:21:17;4.50;;;2.13;;
17141;SDS011;32805;53.556;9.944;2023-10-09T01:23:52;3.88;;;2.00;;
17141;SDS011;32805;53.556;9.944;2023-10-09T01:26:34;4.07;;;2.20;;
17141;SDS011;32805;53.556;9.944;2023-10-09T01:29:06;4.78;;;2.42;;
17141;SDS011;32805;53.556;9.944;2023-10-09T01:31:37;2.97;;;1.80;;
17141;SDS011;32805;53.556;9.944;2023-10-09T01:34:10;5.13;;;2.08;;
17141;SDS011;32805;53.556;9.944;2023-10-09T01:36:40;4.28;;;2.10;;
17141;SDS011;32805;53.556;9.944;2023-10-09T01:39:09;3.50;;;2.08;;
17141;SDS011;32805;53.556;9.944;2023-10-09T01:41:49;3.33;;;1.80;;
17141;SDS011;32805;53.556;9.944;2023-10-09T01:44:24;3.40;;;1.73;;
17141;SDS011;32805;53.556;9.944;2023-10-09T01:46:53;3.45;;;1.92;;
17141;SDS011;32805;53.556;9.944;2023-10-09T01:49:24;4.15;;;2.05;;
17141;SDS011;32805;53.556;9.944;2023-10-09T01:51:58;3.40;;;2.33;;
17141;SDS011;32805;53.556;9.944;2023-10-09T01:54:37;3.72;;;2.00;;
17141;SDS011;32805;53.556;9.944;2023-10-09T01:57:04;3.63;;;1.80;;
17141;SDS011;32805;53.556;9.944;2023-10-09T01:59:39;4.70;;;1.95;;
17141;SDS011;32805;53.556;9.944;2023-10-09T02:02:10;2.75;;;1.88;;
17141;SDS011;32805;53.556;9.944;2023-10-09T02:04:53;2.63;;;1.90;;
17141;SDS011;32805;53.556;9.944;2023-10-09T02:07:36;4.57;;;2.17;;
17141;SDS011;32805;53.556;9.944;2023-10-09T02:10:13;5.95;;;1.95;;
17141;SDS011;32805;53.556;9.944;2023-10-09T02:12:52;2.05;;;1.80;;
17141;SDS011;32805;53.556;9.944;2023-10-09T02:15:25;3.95;;;1.77;;
17141;SDS011;32805;53.556;9.944;2023-10-09T02:18:19;3.45;;;2.25;;
17141;SDS011;32805;53.556;9.944;2023-10-09T02:21:04;5.38;;;2.00;;
17141;SDS011;32805;53.556;9.944;2023-10-09T02:23:39;3.50;;;1.80;;
17141;SDS011;32805;53.556;9.944;2023-10-09T02:26:13;4.13;;;1.90;;
17141;SDS011;32805;53.556;9.944;2023-10-09T02:28:45;3.95;;;2.05;;
17141;SDS011;32805;53.556;9.944;2023-10-09T02:31:19;4.07;;;2.05;;
17141;SDS011;32805;53.556;9.944;2023-10-09T02:33:50;3.67;;;1.98;;
17141;SDS011;32805;53.556;9.944;2023-10-09T02:36:21;3.58;;;1.75;;
17141;SDS011;32805;53.556;9.944;2023-10-09T02:38:48;3.42;;;1.63;;
17141;SDS011;32805;53.556;9.944;2023-10-09T02:41:19;6.68;;;2.40;;
17141;SDS011;32805;53.556;9.944;2023-10-09T02:43:55;2.20;;;1.60;;
17141;SDS011;32805;53.556;9.944;2023-10-09T02:46:23;5.25;;;1.83;;
17141;SDS011;32805;53.556;9.944;2023-10-09T02:48:58;3.38;;;2.05;;
17141;SDS011;32805;53.556;9.944;2023-10-09T02:51:26;3.78;;;1.65;;
17141;SDS011;32805;53.556;9.944;2023-10-09T02:54:03;4.55;;;1.90;;
17141;SDS011;32805;53.556;9.944;2023-10-09T02:56:46;3.08;;;1.80;;
17141;SDS011;32805;53.556;9.944;2023-10-09T02:59:21;5.38;;;1.75;;
17141;SDS011;32805;53.556;9.944;2023-10-09T03:01:49;2.58;;;1.70;;
17141;SDS011;32805;53.556;9.944;2023-10-09T03:04:20;3.10;;;1.83;;
17141;SDS011;32805;53.556;9.944;2023-10-09T03:06:50;3.75;;;2.03;;
17141;SDS011;32805;53.556;9.944;2023-10-09T03:09:18;2.10;;;1.90;;
17141;SDS011;32805;53.556;9.944;2023-10-09T03:11:53;3.35;;;1.73;;
17141;SDS011;32805;53.556;9.944;2023-10-09T03:14:21;3.00;;;2.00;;
17141;SDS011;32805;53.556;9.944;2023-10-09T03:16:52;3.33;;;2.03;;
17141;SDS011;32805;53.556;9.944;2023-10-09T03:19:21;2.92;;;2.22;;
17141;SDS011;32805;53.556;9.944;2023-10-09T03:21:50;3.05;;;1.95;;
17141;SDS011;32805;53.556;9.944;2023-10-09T03:24:17;3.42;;;2.22;;
17141;SDS011;32805;53.556;9.944;2023-10-09T03:26:46;3.92;;;1.92;;
17141;SDS011;32805;53.556;9.944;2023-10-09T03:29:14;2.80;;;1.67;;
17141;SDS011;32805;53.556;9.944;2023-10-09T03:31:45;6.05;;;2.08;;
17141;SDS011;32805;53.556;9.944;2023-10-09T03:34:13;4.90;;;1.60;;
17141;SDS011;32805;53.556;9.944;2023-10-09T03:36:42;5.18;;;1.95;;
17141;SDS011;32805;53.556;9.944;2023-10-09T03:39:10;2.55;;;1.73;;
17141;SDS011;32805;53.556;9.944;2023-10-09T03:41:51;6.50;;;1.90;;
17141;SDS011;32805;53.556;9.944;2023-10-09T03:44:20;4.10;;;2.13;;
17141;SDS011;32805;53.556;9.944;2023-10-09T03:46:48;4.95;;;1.77;;
17141;SDS011;32805;53.556;9.944;2023-10-09T03:49:17;2.70;;;1.63;;
17141;SDS011;32805;53.556;9.944;2023-10-09T03:51:51;3.40;;;1.90;;
17141;SDS011;32805;53.556;9.944;2023-10-09T03:54:18;3.78;;;1.88;;
17141;SDS011;32805;53.556;9.944;2023-10-09T03:56:47;1.75;;;1.40;;
17141;SDS011;32805;53.556;9.944;2023-10-09T03:59:16;2.17;;;1.65;;
17141;SDS011;32805;53.556;9.944;2023-10-09T04:01:46;3.60;;;1.70;;
17141;SDS011;32805;53.556;9.944;2023-10-09T04:04:14;2.42;;;1.80;;
17141;SDS011;32805;53.556;9.944;2023-10-09T04:06:42;3.50;;;2.00;;
17141;SDS011;32805;53.556;9.944;2023-10-09T04:09:14;3.25;;;1.88;;
17141;SDS011;32805;53.556;9.944;2023-10-09T04:11:54;3.88;;;1.80;;
17141;SDS011;32805;53.556;9.944;2023-10-09T04:14:40;3.25;;;1.90;;
17141;SDS011;32805;53.556;9.944;2023-10-09T04:17:15;2.78;;;1.70;;
17141;SDS011;32805;53.556;9.944;2023-10-09T04:19:57;3.35;;;1.60;;
17141;SDS011;32805;53.556;9.944;2023-10-09T04:22:42;4.90;;;1.65;;
17141;SDS011;32805;53.556;9.944;2023-10-09T04:25:18;2.65;;;1.50;;
17141;SDS011;32805;53.556;9.944;2023-10-09T04:27:52;2.55;;;1.65;;
17141;SDS011;32805;53.556;9.944;2023-10-09T04:30:26;3.47;;;1.60;;
17141;SDS011;32805;53.556;9.944;2023-10-09T04:32:53;5.93;;;1.95;;
17141;SDS011;32805;53.556;9.944;2023-10-09T04:35:29;3.08;;;1.70;;
17141;SDS011;32805;53.556;9.944;2023-10-09T04:37:57;3.45;;;1.95;;
17141;SDS011;32805;53.556;9.944;2023-10-09T04:40:32;3.42;;;2.00;;
17141;SDS011;32805;53.556;9.944;2023-10-09T04:43:14;4.05;;;1.80;;
17141;SDS011;32805;53.556;9.944;2023-10-09T04:45:47;2.70;;;1.73;;
17141;SDS011;32805;53.556;9.944;2023-10-09T04:48:34;2.78;;;1.60;;
17141;SDS011;32805;53.556;9.944;2023-10-09T04:51:05;5.70;;;1.95;;
17141;SDS011;32805;53.556;9.944;2023-10-09T04:53:58;4.00;;;1.77;;
17141;SDS011;32805;53.556;9.944;2023-10-09T04:56:40;4.30;;;1.88;;
17141;SDS011;32805;53.556;9.944;2023-10-09T04:59:18;5.78;;;1.70;;
17141;SDS011;32805;53.556;9.944;2023-10-09T05:01:51;3.45;;;1.60;;
17141;SDS011;32805;53.556;9.944;2023-10-09T05:04:25;2.72;;;1.40;;
17141;SDS011;32805;53.556;9.944;2023-10-09T05:07:06;3.38;;;2.10;;
17141;SDS011;32805;53.556;9.944;2023-10-09T05:09:47;4.28;;;1.85;;
17141;SDS011;32805;53.556;9.944;2023-10-09T05:12:25;4.18;;;1.90;;
17141;SDS011;32805;53.556;9.944;2023-10-09T05:14:55;3.60;;;1.60;;
17141;SDS011;32805;53.556;9.944;2023-10-09T05:17:35;3.05;;;2.00;;
17141;SDS011;32805;53.556;9.944;2023-10-09T05:20:05;2.47;;;1.67;;
17141;SDS011;32805;53.556;9.944;2023-10-09T05:22:50;5.72;;;2.25;;
17141;SDS011;32805;53.556;9.944;2023-10-09T05:25:25;4.78;;;1.90;;
17141;SDS011;32805;53.556;9.944;2023-10-09T05:28:13;2.97;;;1.55;;
17141;SDS011;32805;53.556;9.944;2023-10-09T05:30:58;4.03;;;1.77;;
17141;SDS011;32805;53.556;9.944;2023-10-09T05:33:34;4.85;;;1.90;;
17141;SDS011;32805;53.556;9.944;2023-10-09T05:36:04;6.03;;;2.70;;
17141;SDS011;32805;53.556;9.944;2023-10-09T05:39:01;4.65;;;2.70;;
17141;SDS011;32805;53.556;9.944;2023-10-09T05:41:49;7.85;;;2.92;;
17141;SDS011;32805;53.556;9.944;2023-10-09T05:44:28;5.22;;;2.05;;
17141;SDS011;32805;53.556;9.944;2023-10-09T05:47:13;3.53;;;2.05;;
17141;SDS011;32805;53.556;9.944;2023-10-09T05:49:59;3.35;;;1.77;;
17141;SDS011;32805;53.556;9.944;2023-10-09T05:52:43;2.78;;;1.73;;
17141;SDS011;32805;53.556;9.944;2023-10-09T05:55:31;2.63;;;1.73;;
17141;SDS011;32805;53.556;9.944;2023-10-09T05:58:16;2.88;;;1.95;;
17141;SDS011;32805;53.556;9.944;2023-10-09T06:01:02;4.88;;;2.10;;
17141;SDS011;32805;53.556;9.944;2023-10-09T06:03:52;4.95;;;2.17;;
17141;SDS011;32805;53.556;9.944;2023-10-09T06:06:31;5.47;;;1.63;;
17141;SDS011;32805;53.556;9.944;2023-10-09T06:09:09;4.28;;;2.08;;
17141;SDS011;32805;53.556;9.944;2023-10-09T06:11:55;4.95;;;2.20;;
17141;SDS011;32805;53.556;9.944;2023-10-09T06:14:43;4.25;;;2.45;;
17141;SDS011;32805;53.556;9.944;2023-10-09T06:17:17;3.40;;;2.28;;
17141;SDS011;32805;53.556;9.944;2023-10-09T06:19:50;4.13;;;2.25;;
17141;SDS011;32805;53.556;9.944;2023-10-09T06:22:25;3.80;;;2.38;;
17141;SDS011;32805;53.556;9.944;2023-10-09T06:25:10;3.28;;;2.08;;
17141;SDS011;32805;53.556;9.944;2023-10-09T06:27:38;2.83;;;1.98;;
17141;SDS011;32805;53.556;9.944;2023-10-09T06:30:20;2.60;;;2.13;;
17141;SDS011;32805;53.556;9.944;2023-10-09T06:32:54;3.78;;;2.22;;
17141;SDS011;32805;53.556;9.944;2023-10-09T06:35:46;4.88;;;2.97;;
17141;SDS011;32805;53.556;9.944;2023-10-09T06:38:20;4.63;;;2.92;;
17141;SDS011;32805;53.556;9.944;2023-10-09T06:40:59;4.80;;;2.65;;
17141;SDS011;32805;53.556;9.944;2023-10-09T06:43:43;3.90;;;2.67;;
17141;SDS011;32805;53.556;9.944;2023-10-09T06:46:14;4.60;;;2.80;;
17141;SDS011;32805;53.556;9.944;2023-10-09T06:49:00;4.95;;;2.75;;
17141;SDS011;32805;53.556;9.944;2023-10-09T06:51:48;2.88;;;2.28;;
17141;SDS011;32805;53.556;9.944;2023-10-09T06:54:21;8.80;;;2.85;;
17141;SDS011;32805;53.556;9.944;2023-10-09T06:56:52;6.97;;;3.00;;
17141;SDS011;32805;53.556;9.944;2023-10-09T06:59:37;4.07;;;2.90;;
17141;SDS011;32805;53.556;9.944;2023-10-09T07:02:31;4.45;;;3.17;;
17141;SDS011;32805;53.556;9.944;2023-10-09T07:05:13;4.32;;;2.85;;
17141;SDS011;32805;53.556;9.944;2023-10-09T07:07:44;5.00;;;2.50;;
17141;SDS011;32805;53.556;9.944;2023-10-09T07:10:21;4.97;;;3.10;;
17141;SDS011;32805;53.556;9.944;2023-10-09T07:12:59;4.15;;;2.85;;
17141;SDS011;32805;53.556;9.944;2023-10-09T07:15:29;4.28;;;3.38;;
17141;SDS011;32805;53.556;9.944;2023-10-09T07:18:14;4.07;;;2.80;;
17141;SDS011;32805;53.556;9.944;2023-10-09T07:20:51;5.10;;;2.85;;
17141;SDS011;32805;53.556;9.944;2023-10-09T07:23:36;4.72;;;2.63;;
17141;SDS011;32805;53.556;9.944;2023-10-09T07:26:14;5.43;;;3.20;;
17141;SDS011;32805;53.556;9.944;2023-10-09T07:28:45;4.10;;;2.75;;
17141;SDS011;32805;53.556;9.944;2023-10-09T07:31:18;3.33;;;2.53;;
17141;SDS011;32805;53.556;9.944;2023-10-09T07:34:06;2.38;;;2.17;;
17141;SDS011;32805;53.556;9.944;2023-10-09T07:36:56;3.60;;;3.03;;
17141;SDS011;32805;53.556;9.944;2023-10-09T07:39:23;3.55;;;2.97;;
17141;SDS011;32805;53.556;9.944;2023-10-09T07:42:02;5.22;;;2.78;;
17141;SDS011;32805;53.556;9.944;2023-10-09T07:44:41;3.25;;;2.78;;
17141;SDS011;32805;53.556;9.944;2023-10-09T07:47:19;3.83;;;3.08;;
17141;SDS011;32805;53.556;9.944;2023-10-09T07:50:12;3.90;;;2.65;;
17141;SDS011;32805;53.556;9.944;2023-10-09T07:52:48;3.95;;;2.88;;
17141;SDS011;32805;53.556;9.944;2023-10-09T07:55:17;3.15;;;2.40;;
17141;SDS011;32805;53.556;9.944;2023-10-09T07:57:56;3.33;;;2.40;;
17141;SDS011;32805;53.556;9.944;2023-10-09T08:00:23;3.00;;;2.70;;
17141;SDS011;32805;53.556;9.944;2023-10-09T08:03:15;2.85;;;2.10;;
17141;SDS011;32805;53.556;9.944;2023-10-09T08:05:51;3.03;;;2.15;;
17141;SDS011;32805;53.556;9.944;2023-10-09T08:08:21;2.10;;;2.00;;
17141;SDS011;32805;53.556;9.944;2023-10-09T08:11:09;2.67;;;2.08;;
17141;SDS011;32805;53.556;9.944;2023-10-09T08:13:54;4.30;;;2.28;;
17141;SDS011;32805;53.556;9.944;2023-10-09T08:16:27;5.50;;;2.20;;
17141;SDS011;32805;53.556;9.944;2023-10-09T08:19:03;3.08;;;2.40;;
17141;SDS011;32805;53.556;9.944;2023-10-09T08:21:54;3.05;;;2.45;;
17141;SDS011;32805;53.556;9.944;2023-10-09T08:24:45;3.25;;;2.22;;
17141;SDS011;32805;53.556;9.944;2023-10-09T08:27:22;3.65;;;2.20;;
17141;SDS011;32805;53.556;9.944;2023-10-09T08:30:04;4.15;;;2.45;;
17141;SDS011;32805;53.556;9.944;2023-10-09T08:32:54;2.78;;;2.47;;
17141;SDS011;32805;53.556;9.944;2023-10-09T08:35:32;3.20;;;2.90;;
17141;SDS011;32805;53.556;9.944;2023-10-09T08:38:00;4.68;;;3.08;;
17141;SDS011;32805;53.556;9.944;2023-10-09T08:40:40;6.03;;;3.42;;
17141;SDS011;32805;53.556;9.944;2023-10-09T08:43:08;3.72;;;3.35;;
17141;SDS011;32805;53.556;9.944;2023-10-09T08:45:37;3.78;;;3.47;;
17141;SDS011;32805;53.556;9.944;2023-10-09T08:48:06;4.13;;;3.72;;
17141;SDS011;32805;53.556;9.944;2023-10-09T08:50:38;4.80;;;4.00;;
17141;SDS011;32805;53.556;9.944;2023-10-09T08:53:07;4.00;;;3.38;;
17141;SDS011;32805;53.556;9.944;2023-10-09T08:55:36;4.10;;;3.58;;
17141;SDS011;32805;53.556;9.944;2023-10-09T08:58:04;4.30;;;3.90;;
17141;SDS011;32805;53.556;9.944;2023-10-09T09:00:37;4.70;;;3.45;;
17141;SDS011;32805;53.556;9.944;2023-10-09T09:03:09;3.85;;;3.13;;
17141;SDS011;32805;53.556;9.944;2023-10-09T09:05:36;3.28;;;2.97;;
17141;SDS011;32805;53.556;9.944;2023-10-09T09:08:04;3.20;;;2.90;;
17141;SDS011;32805;53.556;9.944;2023-10-09T09:10:51;3.00;;;2.75;;
17141;SDS011;32805;53.556;9.944;2023-10-09T09:13:24;3.80;;;2.95;;
17141;SDS011;32805;53.556;9.944;2023-10-09T09:15:58;3.20;;;2.88;;
17141;SDS011;32805;53.556;9.944;2023-10-09T09:18:25;3.33;;;2.60;;
17141;SDS011;32805;53.556;9.944;2023-10-09T09:20:58;3.53;;;2.53;;
17141;SDS011;32805;53.556;9.944;2023-10-09T09:23:25;3.67;;;3.38;;
17141;SDS011;32805;53.556;9.944;2023-10-09T09:25:54;3.08;;;2.55;;
17141;SDS011;32805;53.556;9.944;2023-10-09T09:28:27;4.00;;;2.83;;
17141;SDS011;32805;53.556;9.944;2023-10-09T09:31:08;3.17;;;2.65;;
17141;SDS011;32805;53.556;9.944;2023-10-09T09:33:40;3.67;;;2.85;;
17141;SDS011;32805;53.556;9.944;2023-10-09T09:36:09;4.47;;;2.03;;
17141;SDS011;32805;53.556;9.944;2023-10-09T09:38:37;5.57;;;3.22;;
17141;SDS011;32805;53.556;9.944;2023-10-09T09:41:17;3.10;;;2.70;;
17141;SDS011;32805;53.556;9.944;2023-10-09T09:43:51;3.42;;;2.60;;
17141;SDS011;32805;53.556;9.944;2023-10-09T09:46:22;2.30;;;2.10;;
17141;SDS011;32805;53.556;9.944;2023-10-09T09:48:54;3.65;;;2.30;;
17141;SDS011;32805;53.556;9.944;2023-10-09T09:51:29;2.22;;;2.03;;
17141;SDS011;32805;53.556;9.944;2023-10-09T09:53:56;3.95;;;2.50;;
17141;SDS011;32805;53.556;9.944;2023-10-09T09:56:25;2.70;;;2.50;;
17141;SDS011;32805;53.556;9.944;2023-10-09T09:58:52;2.90;;;2.60;;
17141;SDS011;32805;53.556;9.944;2023-10-09T10:01:23;1.80;;;1.70;;
17141;SDS011;32805;53.556;9.944;2023-10-09T10:03:54;2.00;;;1.90;;
17141;SDS011;32805;53.556;9.944;2023-10-09T10:06:24;1.63;;;1.52;;
17141;SDS011;32805;53.556;9.944;2023-10-09T10:08:53;1.67;;;1.58;;
17141;SDS011;32805;53.556;9.944;2023-10-09T10:14:09;2.75;;;1.70;;
17141;SDS011;32805;53.556;9.944;2023-10-09T10:19:22;2.10;;;1.45;;
17141;SDS011;32805;53.556;9.944;2023-10-09T10:21:49;2.33;;;1.60;;
17141;SDS011;32805;53.556;9.944;2023-10-09T10:27:18;2.08;;;1.67;;
17141;SDS011;32805;53.556;9.944;2023-10-09T10:35:21;2.85;;;1.60;;
17141;SDS011;32805;53.556;9.944;2023-10-09T10:37:59;1.85;;;1.67;;
17141;SDS011;32805;53.556;9.944;2023-10-09T10:40:37;1.70;;;1.50;;
17141;SDS011;32805;53.556;9.944;2023-10-09T10:43:07;2.03;;;1.50;;
17141;SDS011;32805;53.556;9.944;2023-10-09T10:45:39;2.15;;;1.80;;
17141;SDS011;32805;53.556;9.944;2023-10-09T10:48:11;2.05;;;1.58;;
17141;SDS011;32805;53.556;9.944;2023-10-09T10:50:56;1.80;;;1.70;;
17141;SDS011;32805;53.556;9.944;2023-10-09T10:53:24;2.33;;;1.60;;
17141;SDS011;32805;53.556;9.944;2023-10-09T10:55:56;1.70;;;1.60;;
17141;SDS011;32805;53.556;9.944;2023-10-09T10:58:23;2.92;;;2.00;;
17141;SDS011;32805;53.556;9.944;2023-10-09T11:01:01;2.83;;;2.08;;
17141;SDS011;32805;53.556;9.944;2023-10-09T11:03:41;3.78;;;2.33;;
17141;SDS011;32805;53.556;9.944;2023-10-09T11:06:25;3.13;;;2.30;;
17141;SDS011;32805;53.556;9.944;2023-10-09T11:09:04;1.48;;;1.38;;
17141;SDS011;32805;53.556;9.944;2023-10-09T11:11:48;2.75;;;1.67;;
17141;SDS011;32805;53.556;9.944;2023-10-09T11:14:16;2.00;;;1.90;;
17141;SDS011;32805;53.556;9.944;2023-10-09T11:16:50;1.55;;;1.45;;
17141;SDS011;32805;53.556;9.944;2023-10-09T11:19:24;2.05;;;1.73;;
17141;SDS011;32805;53.556;9.944;2023-10-09T11:22:07;1.98;;;1.70;;
17141;SDS011;32805;53.556;9.944;2023-10-09T11:24:54;1.60;;;1.50;;
17141;SDS011;32805;53.556;9.944;2023-10-09T11:27:37;1.60;;;1.50;;
17141;SDS011;32805;53.556;9.944;2023-10-09T11:30:16;2.53;;;1.77;;
17141;SDS011;32805;53.556;9.944;2023-10-09T11:33:03;1.52;;;1.42;;
17141;SDS011;32805;53.556;9.944;2023-10-09T11:35:31;2.05;;;1.45;;
17141;SDS011;32805;53.556;9.944;2023-10-09T11:38:02;2.15;;;1.60;;
17141;SDS011;32805;53.556;9.944;2023-10-09T11:40:47;1.75;;;1.65;;
17141;SDS011;32805;53.556;9.944;2023-10-09T11:43:48;1.70;;;1.60;;
17141;SDS011;32805;53.556;9.944;2023-10-09T11:46:18;2.85;;;2.05;;
17141;SDS011;32805;53.556;9.944;2023-10-09T11:49:05;2.15;;;1.90;;
17141;SDS011;32805;53.556;9.944;2023-10-09T11:51:50;1.95;;;1.60;;
17141;SDS011;32805;53.556;9.944;2023-10-09T11:54:52;1.70;;;1.50;;
17141;SDS011;32805;53.556;9.944;2023-10-09T11:57:23;2.35;;;1.77;;
17141;SDS011;32805;53.556;9.944;2023-10-09T11:59:56;2.45;;;1.63;;
17141;SDS011;32805;53.556;9.944;2023-10-09T12:02:25;2.03;;;1.23;;
17141;SDS011;32805;53.556;9.944;2023-10-09T12:04:53;3.10;;;1.70;;
17141;SDS011;32805;53.556;9.944;2023-10-09T12:07:23;2.00;;;1.80;;
17141;SDS011;32805;53.556;9.944;2023-10-09T12:09:52;2.60;;;1.92;;
17141;SDS011;32805;53.556;9.944;2023-10-09T12:12:22;1.50;;;1.40;;
17141;SDS011;32805;53.556;9.944;2023-10-09T12:14:52;1.90;;;1.35;;
17141;SDS011;32805;53.556;9.944;2023-10-09T12:17:21;2.58;;;1.70;;
17141;SDS011;32805;53.556;9.944;2023-10-09T12:19:53;3.25;;;1.80;;
17141;SDS011;32805;53.556;9.944;2023-10-09T12:22:22;1.98;;;1.77;;
17141;SDS011;32805;53.556;9.944;2023-10-09T12:24:55;2.38;;;1.77;;
17141;SDS011;32805;53.556;9.944;2023-10-09T12:27:23;2.58;;;1.80;;
17141;SDS011;32805;53.556;9.944;2023-10-09T12:29:50;2.55;;;1.80;;
17141;SDS011;32805;53.556;9.944;2023-10-09T12:32:18;3.17;;;2.00;;
17141;SDS011;32805;53.556;9.944;2023-10-09T12:35:07;3.05;;;2.15;;
17141;SDS011;32805;53.556;9.944;2023-10-09T12:37:43;1.80;;;1.70;;
17141;SDS011;32805;53.556;9.944;2023-10-09T12:40:12;2.30;;;2.10;;
17141;SDS011;32805;53.556;9.944;2023-10-09T12:42:50;3.50;;;2.50;;
17141;SDS011;32805;53.556;9.944;2023-10-09T12:45:19;3.33;;;2.45;;
17141;SDS011;32805;53.556;9.944;2023-10-09T12:47:52;3.35;;;2.75;;
17141;SDS011;32805;53.556;9.944;2023-10-09T12:50:21;3.55;;;2.40;;
17141;SDS011;32805;53.556;9.944;2023-10-09T12:52:57;3.67;;;3.17;;
17141;SDS011;32805;53.556;9.944;2023-10-09T12:55:29;3.38;;;2.70;;
17141;SDS011;32805;53.556;9.944;2023-10-09T12:58:02;4.78;;;3.17;;
17141;SDS011;32805;53.556;9.944;2023-10-09T13:00:33;3.08;;;2.80;;
17141;SDS011;32805;53.556;9.944;2023-10-09T13:03:04;2.92;;;2.63;;
17141;SDS011;32805;53.556;9.944;2023-10-09T13:05:46;3.00;;;2.70;;
17141;SDS011;32805;53.556;9.944;2023-10-09T13:08:21;6.65;;;2.50;;
17141;SDS011;32805;53.556;9.944;2023-10-09T13:10:50;4.07;;;3.25;;
17141;SDS011;32805;53.556;9.944;2023-10-09T13:13:27;3.65;;;2.72;;
17141;SDS011;32805;53.556;9.944;2023-10-09T13:16:08;3.22;;;2.97;;
17141;SDS011;32805;53.556;9.944;2023-10-09T13:18:38;3.78;;;2.90;;
17141;SDS011;32805;53.556;9.944;2023-10-09T13:21:06;3.50;;;2.97;;
17141;SDS011;32805;53.556;9.944;2023-10-09T13:23:33;3.53;;;3.00;;
17141;SDS011;32805;53.556;9.944;2023-10-09T13:26:08;3.22;;;2.90;;
17141;SDS011;32805;53.556;9.944;2023-10-09T13:28:48;3.53;;;3.22;;
17141;SDS011;32805;53.556;9.944;2023-10-09T13:31:16;4.20;;;3.00;;
17141;SDS011;32805;53.556;9.944;2023-10-09T13:33:44;3.47;;;2.33;;
17141;SDS011;32805;53.556;9.944;2023-10-09T13:36:12;3.30;;;3.00;;
17141;SDS011;32805;53.556;9.944;2023-10-09T13:38:46;2.85;;;2.65;;
17141;SDS011;32805;53.556;9.944;2023-10-09T13:41:15;3.00;;;2.70;;
17141;SDS011;32805;53.556;9.944;2023-10-09T13:43:44;3.60;;;2.90;;
17141;SDS011;32805;53.556;9.944;2023-10-09T13:46:11;3.70;;;3.35;;
17141;SDS011;32805;53.556;9.944;2023-10-09T13:48:39;3.05;;;2.75;;
17141;SDS011;32805;53.556;9.944;2023-10-09T13:51:07;3.78;;;3.33;;
17141;SDS011;32805;53.556;9.944;2023-10-09T13:53:40;3.33;;;3.00;;
17141;SDS011;32805;53.556;9.944;2023-10-09T13:56:12;3.30;;;3.00;;
17141;SDS011;32805;53.556;9.944;2023-10-09T13:58:46;3.20;;;2.90;;
17141;SDS011;32805;53.556;9.944;2023-10-09T14:01:14;3.40;;;3.10;;
17141;SDS011;32805;53.556;9.944;2023-10-09T14:03:54;5.43;;;3.92;;
17141;SDS011;32805;53.556;9.944;2023-10-09T14:06:25;3.85;;;3.47;;
17141;SDS011;32805;53.556;9.944;2023-10-09T14:08:59;6.55;;;4.05;;
17141;SDS011;32805;53.556;9.944;2023-10-09T14:11:30;5.90;;;4.15;;
17141;SDS011;32805;53.556;9.944;2023-10-09T14:13:59;4.35;;;3.78;;
17141;SDS011;32805;53.556;9.944;2023-10-09T14:16:37;4.13;;;3.67;;
17141;SDS011;32805;53.556;9.944;2023-10-09T14:19:09;3.63;;;3.33;;
17141;SDS011;32805;53.556;9.944;2023-10-09T14:21:39;4.88;;;3.88;;
17141;SDS011;32805;53.556;9.944;2023-10-09T14:24:08;4.38;;;3.92;;
17141;SDS011;32805;53.556;9.944;2023-10-09T14:26:45;4.15;;;3.60;;
17141;SDS011;32805;53.556;9.944;2023-10-09T14:29:16;4.30;;;3.80;;
17141;SDS011;32805;53.556;9.944;2023-10-09T14:31:43;3.47;;;3.13;;
17141;SDS011;32805;53.556;9.944;2023-10-09T14:34:16;4.00;;;3.70;;
17141;SDS011;32805;53.556;9.944;2023-10-09T14:36:43;4.82;;;3.83;;
17141;SDS011;32805;53.556;9.944;2023-10-09T14:39:11;4.32;;;3.83;;
17141;SDS011;32805;53.556;9.944;2023-10-09T14:41:39;4.32;;;3.92;;
17141;SDS011;32805;53.556;9.944;2023-10-09T14:44:07;4.63;;;4.22;;
17141;SDS011;32805;53.556;9.944;2023-10-09T14:46:44;5.03;;;4.60;;
17141;SDS011;32805;53.556;9.944;2023-10-09T14:49:12;5.85;;;4.40;;
17141;SDS011;32805;53.556;9.944;2023-10-09T14:51:43;4.90;;;4.47;;
17141;SDS011;32805;53.556;9.944;2023-10-09T14:54:10;5.93;;;5.32;;
17141;SDS011;32805;53.556;9.944;2023-10-09T14:56:42;10.75;;;5.70;;
17141;SDS011;32805;53.556;9.944;2023-10-09T14:59:09;5.40;;;4.75;;
17141;SDS011;32805;53.556;9.944;2023-10-09T15:01:38;6.03;;;4.60;;
17141;SDS011;32805;53.556;9.944;2023-10-09T15:04:07;5.82;;;4.97;;
17141;SDS011;32805;53.556;9.944;2023-10-09T15:06:41;6.95;;;5.78;;
17141;SDS011;32805;53.556;9.944;2023-10-09T15:09:08;6.43;;;5.07;;
17141;SDS011;32805;53.556;9.944;2023-10-09T15:11:36;5.53;;;5.03;;
17141;SDS011;32805;53.556;9.944;2023-10-09T15:14:05;6.43;;;5.78;;
17141;SDS011;32805;53.556;9.944;2023-10-09T15:16:33;5.72;;;5.13;;
17141;SDS011;32805;53.556;9.944;2023-10-09T15:19:05;5.97;;;5.38;;
17141;SDS011;32805;53.556;9.944;2023-10-09T15:21:38;8.93;;;6.80;;
17141;SDS011;32805;53.556;9.944;2023-10-09T15:24:10;8.52;;;7.13;;
17141;SDS011;32805;53.556;9.944;2023-10-09T15:26:42;7.68;;;6.97;;
17141;SDS011;32805;53.556;9.944;2023-10-09T15:29:10;8.27;;;6.70;;
17141;SDS011;32805;53.556;9.944;2023-10-09T15:31:38;7.07;;;6.38;;
17141;SDS011;32805;53.556;9.944;2023-10-09T15:34:08;6.88;;;6.18;;
17141;SDS011;32805;53.556;9.944;2023-10-09T15:36:35;6.88;;;6.18;;
17141;SDS011;32805;53.556;9.944;2023-10-09T15:39:04;7.75;;;6.15;;
17141;SDS011;32805;53.556;9.944;2023-10-09T15:41:34;7.47;;;6.05;;
17141;SDS011;32805;53.556;9.944;2023-10-09T15:44:02;6.90;;;5.68;;
17141;SDS011;32805;53.556;9.944;2023-10-09T15:46:29;6.47;;;5.57;;